createdAt,value
2017-05-14T00:00:10.362Z,11.6
2017-05-14T00:05:03.037Z,11.6
2017-05-14T00:10:02.857Z,11.6
2017-05-14T00:15:02.559Z,11.8
2017-05-14T00:20:18.313Z,11.6
2017-05-14T00:25:02.981Z,11.6
2017-05-14T00:30:02.692Z,11.6
2017-05-14T00:35:02.495Z,11.6
2017-05-14T00:40:03.357Z,11.6
2017-05-14T00:45:34.217Z,11.3
2017-05-14T00:50:02.762Z,11.1
2017-05-14T00:55:02.458Z,11.0
2017-05-14T01:00:03.219Z,11.0
2017-05-14T01:05:02.934Z,11.1
2017-05-14T01:10:17.721Z,11.3
2017-05-14T01:15:03.382Z,11.3
2017-05-14T01:20:03.177Z,11.3
2017-05-14T01:25:02.812Z,11.3
2017-05-14T01:30:02.465Z,11.3
2017-05-14T01:35:03.181Z,11.6
2017-05-14T01:40:02.981Z,11.6
2017-05-14T01:45:02.745Z,11.3
2017-05-14T01:50:02.635Z,11.3
2017-05-14T01:55:03.293Z,11.3
2017-05-14T02:00:09.942Z,11.3
2017-05-14T02:05:02.517Z,11.3
2017-05-14T02:10:03.361Z,11.3
2017-05-14T02:15:03.131Z,11.3
2017-05-14T02:20:02.789Z,11.3
2017-05-14T02:25:02.433Z,11.3
2017-05-14T02:30:03.012Z,11.3
2017-05-14T02:35:02.666Z,11.3
2017-05-14T02:40:02.416Z,11.1
2017-05-14T02:45:03.247Z,11.3
2017-05-14T02:50:02.922Z,11.3
2017-05-14T02:55:02.551Z,11.3
2017-05-14T03:00:03.275Z,11.3
2017-05-14T03:05:02.888Z,11.0
2017-05-14T03:10:02.568Z,11.0
2017-05-14T03:15:03.337Z,11.0
2017-05-14T03:20:03.999Z,11.1
2017-05-14T03:25:02.723Z,11.1
2017-05-14T03:30:03.297Z,11.1
2017-05-14T03:35:02.963Z,11.1
2017-05-14T03:40:02.768Z,11.1
2017-05-14T03:45:02.382Z,11.1
2017-05-14T03:50:03.070Z,11.3
2017-05-14T03:55:02.592Z,11.3
2017-05-14T04:00:03.223Z,11.3
2017-05-14T04:05:02.821Z,11.3
2017-05-14T04:10:02.547Z,11.1
2017-05-14T04:15:03.137Z,11.0
2017-05-14T04:20:02.972Z,11.0
2017-05-14T04:25:02.710Z,10.8
2017-05-14T04:30:03.433Z,10.8
2017-05-14T04:35:03.039Z,10.8
2017-05-14T04:40:03.025Z,11.0
2017-05-14T04:45:02.751Z,11.1
2017-05-14T04:50:03.365Z,11.3
2017-05-14T04:55:03.044Z,11.3
2017-05-14T05:00:02.787Z,11.3
2017-05-14T05:05:02.553Z,11.8
2017-05-14T05:10:03.345Z,12.0
2017-05-14T05:15:02.869Z,12.1
2017-05-14T05:20:02.623Z,12.1
2017-05-14T05:25:02.429Z,12.6
2017-05-14T05:30:03.041Z,12.8
2017-05-14T05:35:02.769Z,13.3
2017-05-14T05:40:03.403Z,13.3
2017-05-14T05:45:03.266Z,13.6
2017-05-14T05:50:02.963Z,13.6
2017-05-14T05:55:02.514Z,14.0
2017-05-14T06:00:03.118Z,14.1
2017-05-14T06:05:02.780Z,14.3
2017-05-14T06:10:02.486Z,14.3
2017-05-14T06:15:03.089Z,14.3
2017-05-14T06:20:02.683Z,14.5
2017-05-14T06:25:03.410Z,14.6
2017-05-14T06:30:03.025Z,14.6
2017-05-14T06:35:02.651Z,14.6
2017-05-14T06:40:03.400Z,14.5
2017-05-14T06:45:02.995Z,14.8
2017-05-14T06:50:02.606Z,15.0
2017-05-14T06:55:03.269Z,15.1
2017-05-14T07:00:02.851Z,15.5
2017-05-14T07:05:02.676Z,15.5
2017-05-14T07:10:03.410Z,15.5
2017-05-14T07:15:03.200Z,15.1
2017-05-14T07:20:02.824Z,15.1
2017-05-14T07:25:02.544Z,15.5
2017-05-14T07:30:02.437Z,15.8
2017-05-14T07:35:03.289Z,15.8
2017-05-14T07:40:02.995Z,16.7
2017-05-14T07:45:02.718Z,17.0
2017-05-14T07:50:02.966Z,17.1
2017-05-14T07:55:03.040Z,17.7
2017-05-14T08:00:02.976Z,18.6
2017-05-14T08:05:02.769Z,17.7
2017-05-14T08:10:02.984Z,17.7
2017-05-14T08:15:02.559Z,18.7
2017-05-14T08:20:03.261Z,19.2
2017-05-14T08:25:03.279Z,19.5
2017-05-14T08:30:02.913Z,20.0
2017-05-14T08:35:02.493Z,20.2
2017-05-14T08:40:03.283Z,20.8
2017-05-14T08:45:02.917Z,20.7
2017-05-14T08:50:02.707Z,20.7
2017-05-14T08:55:03.411Z,20.2
2017-05-14T09:00:03.195Z,20.2
2017-05-14T09:05:02.817Z,20.0
2017-05-14T09:10:02.593Z,20.7
2017-05-14T09:15:02.407Z,20.8
2017-05-14T09:20:03.167Z,20.2
2017-05-14T09:25:02.883Z,20.3
2017-05-14T09:30:02.603Z,20.6
2017-05-14T09:35:03.350Z,21.3
2017-05-14T09:40:03.403Z,21.2
2017-05-14T09:45:03.166Z,22.0
2017-05-14T09:50:02.819Z,21.5
2017-05-14T09:55:02.450Z,22.0
2017-05-14T10:00:03.283Z,22.3
2017-05-14T10:05:03.011Z,21.5
2017-05-14T10:10:02.856Z,22.3
2017-05-14T10:15:02.444Z,21.5
2017-05-14T10:20:03.138Z,20.7
2017-05-14T10:25:03.116Z,20.6
2017-05-14T10:30:03.023Z,20.2
2017-05-14T10:35:02.741Z,21.5
2017-05-14T10:40:02.775Z,22.1
2017-05-14T10:45:03.193Z,22.3
2017-05-14T10:50:02.788Z,21.8
2017-05-14T10:55:02.946Z,22.0
2017-05-14T11:00:02.973Z,21.5
2017-05-14T11:05:02.453Z,23.1
2017-05-14T11:10:02.676Z,23.2
2017-05-14T11:15:02.449Z,23.2
2017-05-14T11:20:03.199Z,22.6
2017-05-14T11:25:03.351Z,22.7
2017-05-14T11:30:02.499Z,22.7
2017-05-14T11:35:02.604Z,22.6
2017-05-14T11:40:02.567Z,23.0
2017-05-14T11:45:02.477Z,24.0
2017-05-14T11:50:03.195Z,23.7
2017-05-14T11:55:02.832Z,23.2
2017-05-14T12:00:02.433Z,22.2
2017-05-14T12:05:03.060Z,23.2
2017-05-14T12:10:02.837Z,23.6
2017-05-14T12:15:02.726Z,24.0
2017-05-14T12:20:02.737Z,23.3
2017-05-14T12:25:02.418Z,24.0
2017-05-14T12:30:03.035Z,24.7
2017-05-14T12:35:02.675Z,23.6
2017-05-14T12:40:02.701Z,23.0
2017-05-14T12:45:02.966Z,23.2
2017-05-14T12:50:03.187Z,22.7
2017-05-14T12:55:02.645Z,23.7
2017-05-14T13:00:03.128Z,23.0
2017-05-14T13:05:02.551Z,22.6
2017-05-14T13:10:03.210Z,23.3
2017-05-14T13:15:03.035Z,23.7
2017-05-14T13:20:03.344Z,23.1
2017-05-14T13:25:02.588Z,22.5
2017-05-14T13:30:02.641Z,22.6
2017-05-14T13:35:02.508Z,22.7
2017-05-14T13:40:02.549Z,23.2
2017-05-14T13:45:02.629Z,23.2
2017-05-14T13:50:02.751Z,23.0
2017-05-14T13:55:02.486Z,22.3
2017-05-14T14:00:03.395Z,22.6
2017-05-14T14:05:03.089Z,22.2
2017-05-14T14:10:03.303Z,22.5
2017-05-14T14:15:02.479Z,22.2
2017-05-14T14:20:03.038Z,21.7
2017-05-14T14:25:02.626Z,21.5
2017-05-14T14:30:02.613Z,21.2
2017-05-14T14:35:03.215Z,20.7
2017-05-14T14:40:02.835Z,20.7
2017-05-14T14:45:02.996Z,20.2
2017-05-14T14:50:03.124Z,19.3
2017-05-14T14:55:03.213Z,18.1
2017-05-14T15:00:02.923Z,16.3
2017-05-14T15:05:03.192Z,15.8
2017-05-14T15:10:02.741Z,15.8
2017-05-14T15:15:03.321Z,16.7
2017-05-14T15:20:03.340Z,17.0
2017-05-14T15:25:02.750Z,17.3
2017-05-14T15:30:02.549Z,18.5
2017-05-14T15:35:03.389Z,17.7
2017-05-14T15:40:02.592Z,17.0
2017-05-14T15:45:02.834Z,16.7
2017-05-14T15:50:02.457Z,17.1
2017-05-14T15:55:03.380Z,17.3
2017-05-14T16:00:02.766Z,16.7
2017-05-14T16:05:02.483Z,18.5
2017-05-14T16:10:02.926Z,18.6
2017-05-14T16:15:03.028Z,18.7
2017-05-14T16:20:02.555Z,20.0
2017-05-14T16:25:03.308Z,20.8
2017-05-14T16:30:03.412Z,20.6
2017-05-14T16:35:02.732Z,19.7
2017-05-14T16:40:02.629Z,20.0
2017-05-14T16:45:02.467Z,20.2
2017-05-14T16:50:03.409Z,20.0
2017-05-14T16:55:02.421Z,18.5
2017-05-14T17:00:02.520Z,17.8
2017-05-14T17:05:03.172Z,17.7
2017-05-14T17:10:02.484Z,17.7
2017-05-14T17:15:03.161Z,17.5
2017-05-14T17:20:03.015Z,17.5
2017-05-14T17:25:02.904Z,16.7
2017-05-14T17:30:02.728Z,15.3
2017-05-14T17:35:02.509Z,15.1
2017-05-14T17:40:02.657Z,15.1
2017-05-14T17:45:03.338Z,15.8
2017-05-14T17:50:02.402Z,15.6
2017-05-14T17:55:03.240Z,17.0
2017-05-14T18:00:03.015Z,16.7
2017-05-14T18:05:03.318Z,16.7
2017-05-14T18:10:03.365Z,16.3
2017-05-14T18:15:02.715Z,15.8
2017-05-14T18:20:02.774Z,15.3
2017-05-14T18:25:02.431Z,15.0
2017-05-14T18:30:02.504Z,15.0
2017-05-14T18:35:03.179Z,16.2
2017-05-14T18:40:02.473Z,16.0
2017-05-14T18:45:02.998Z,15.8
2017-05-14T18:50:02.714Z,15.8
2017-05-14T18:55:02.537Z,15.8
2017-05-14T19:00:03.370Z,15.8
2017-05-14T19:05:02.448Z,15.6
2017-05-14T19:10:03.192Z,15.5
2017-05-14T19:15:03.304Z,15.5
2017-05-14T19:20:02.474Z,15.5
2017-05-14T19:25:02.689Z,15.5
2017-05-14T19:30:02.707Z,15.3
2017-05-14T19:35:03.373Z,15.1
2017-05-14T19:40:02.440Z,15.1
2017-05-14T19:45:03.362Z,14.8
2017-05-14T19:50:03.243Z,14.6
2017-05-14T19:55:03.198Z,14.5
2017-05-14T20:00:02.862Z,14.6
2017-05-14T20:05:02.505Z,14.3
2017-05-14T20:10:02.444Z,14.3
2017-05-14T20:15:02.437Z,14.3
2017-05-14T20:20:02.740Z,14.3
2017-05-14T20:25:02.565Z,14.3
2017-05-14T20:30:02.599Z,14.3
2017-05-14T20:35:03.225Z,14.3
2017-05-14T20:40:02.734Z,14.0
2017-05-14T20:45:02.953Z,13.6
2017-05-14T20:50:02.597Z,13.6
2017-05-14T20:55:02.401Z,13.6
2017-05-14T21:00:03.280Z,13.6
2017-05-14T21:05:03.183Z,13.5
2017-05-14T21:10:02.927Z,13.3
2017-05-14T21:15:02.572Z,13.1
2017-05-14T21:20:03.202Z,13.1
2017-05-14T21:25:03.097Z,13.1
2017-05-14T21:30:03.039Z,13.1
2017-05-14T21:35:02.701Z,12.8
2017-05-14T21:40:03.333Z,12.5
2017-05-14T21:45:02.939Z,12.1
2017-05-14T21:50:02.700Z,12.0
2017-05-14T21:55:02.457Z,12.0
2017-05-14T22:00:03.157Z,11.8
2017-05-14T22:05:02.762Z,11.8
2017-05-14T22:10:02.575Z,11.6
2017-05-14T22:15:03.268Z,11.6
2017-05-14T22:20:02.917Z,11.6
2017-05-14T22:25:02.629Z,11.1
2017-05-14T22:30:03.280Z,10.8
2017-05-14T22:35:03.039Z,10.8
2017-05-14T22:40:02.660Z,10.8
2017-05-14T22:45:02.490Z,10.8
2017-05-14T22:50:03.259Z,10.6
2017-05-14T22:55:03.250Z,10.8
2017-05-14T23:00:02.980Z,10.6
2017-05-14T23:05:02.883Z,10.8
2017-05-14T23:10:02.590Z,10.5
2017-05-14T23:15:03.310Z,10.6
2017-05-14T23:20:02.945Z,10.3
2017-05-14T23:25:02.705Z,10.1
2017-05-14T23:30:02.499Z,10.1
2017-05-14T23:35:03.280Z,10.3
2017-05-14T23:40:02.945Z,10.1
2017-05-14T23:45:02.578Z,10.0
2017-05-14T23:50:03.334Z,9.6
2017-05-14T23:55:03.249Z,9.5
